LIMF Airport Information

Runway Information
Runway 18 Length 10827 ft width 197 ft Elevation 981 ft Threshold 2378 ft Heading 183
Runway 36 Length 10827 ft Width 197 ft Elevation 933 ft Threshold 1148 ft Heading 3
Airport Frequencies
Type APP Name APP Frequency 129.275 MHZ
Type APP Name APP Frequency 23.44 MHZ
Type ATIS Name ATIS Frequency 120.475 MHZ
Type GND Name GND Frequency 121.7 MHZ
Type TWR Name TWR Frequency 118.5 MHZ
Airport Navaids
Type TACAN Name Caselle Frequency 109500 KHZ
Type NDB Name Caselle Frequency 357 KHZ
Type VOR-DME Name Caselle Frequency 116750 KHZ
Type VOR-DME Name Torino Frequency 114500 KHZ
Type NDB Name Torino Frequency 393 KHZ
Airport Weather Information & NOTAM
ADDS - METARS form results

(1332 UTC 03 February 2023)
Data provider http://aviationweather.gov/metar/data/
 
METAR text: LIMF 031320Z 22003KT 190V250 8000 NSC 15/M02 Q1024
Conditions at: LIMF (TORINO/CASELLE , IT) observed 1320 UTC 03 February 2023
Temperature: 15.0°C (59°F)
Dewpoint: -2.0°C (28°F) [RH = 31%]
Pressure (altimeter): 30.24 inches Hg (1024.0 mb)
Winds: from the SW (220 degrees) at 3 MPH (3 knots; 1.5 m/s)
Visibility: 5 miles ( 8 km)
Ceiling: at least 12,000 feet AGL
Clouds: sky clear below 12,000 feet AGL
Weather: no significant weather observed at this time

METAR text: LIMF 031250Z VRB02KT 8000 NSC 15/M01 Q1024
Conditions at: LIMF (TORINO/CASELLE , IT) observed 1250 UTC 03 February 2023
Temperature: 15.0°C (59°F)
Dewpoint: -1.0°C (30°F) [RH = 33%]
Pressure (altimeter): 30.24 inches Hg (1024.0 mb)
Winds: variable direction winds at 2 MPH (2 knots; 1.0 m/s)
Visibility: 5 miles ( 8 km)
Ceiling: at least 12,000 feet AGL
Clouds: sky clear below 12,000 feet AGL
Weather: no significant weather observed at this time

Forecast for: LIMF (TORINO/CASELLE , IT)
Text: TAF LIMF 031100Z 0312/0412 VRB05KT CAVOK
Forecast period: 1200 UTC 03 February 2023 to 1200 UTC 04 February 2023
Forecast type: FROM: standard forecast or significant change
Winds: variable direction winds at 6 MPH (5 knots; 2.6 m/s)
Visibility: 6 or more miles (10+ km)
Ceiling: unknown
Clouds: missing
Weather: NSW  (no significant weather)